createdAt,value
2022-09-10T00:01:51.771Z,13.40
2022-09-10T00:04:18.674Z,13.40
2022-09-10T00:06:46.755Z,13.40
2022-09-10T00:09:14.354Z,13.40
2022-09-10T00:11:41.582Z,13.30
2022-09-10T00:14:13.230Z,13.30
2022-09-10T00:16:39.978Z,13.30
2022-09-10T00:19:07.391Z,13.30
2022-09-10T00:21:34.138Z,13.20
2022-09-10T00:24:02.314Z,13.30
2022-09-10T00:26:32.829Z,13.30
2022-09-10T00:28:59.696Z,13.30
2022-09-10T00:31:27.791Z,13.30
2022-09-10T00:33:54.838Z,13.20
2022-09-10T00:36:25.566Z,13.30
2022-09-10T00:38:54.336Z,13.20
2022-09-10T00:41:23.532Z,13.30
2022-09-10T00:43:53.650Z,13.30
2022-09-10T00:46:36.140Z,13.30
2022-09-10T00:49:10.069Z,13.30
2022-09-10T00:51:37.196Z,13.30
2022-09-10T00:54:05.386Z,13.30
2022-09-10T00:56:33.556Z,13.30
2022-09-10T00:59:02.042Z,13.30
2022-09-10T01:01:28.978Z,13.30
2022-09-10T01:03:56.239Z,13.30
2022-09-10T01:06:23.074Z,13.20
2022-09-10T01:08:49.897Z,13.20
2022-09-10T01:11:19.714Z,13.20
2022-09-10T01:14:11.247Z,13.20
2022-09-10T01:16:49.950Z,13.20
2022-09-10T01:19:44.759Z,13.20
2022-09-10T01:22:37.096Z,13.20
2022-09-10T01:25:42.024Z,13.20
2022-09-10T01:28:25.349Z,13.30
2022-09-10T01:30:58.130Z,13.20
2022-09-10T01:33:49.650Z,13.30
2022-09-10T01:36:21.306Z,13.30
2022-09-10T01:38:48.796Z,13.30
2022-09-10T01:41:15.603Z,13.40
2022-09-10T01:43:42.463Z,13.40
2022-09-10T01:46:20.139Z,13.40
2022-09-10T01:49:08.404Z,13.40
2022-09-10T01:51:44.236Z,13.40
2022-09-10T01:54:16.403Z,13.40
2022-09-10T01:56:53.287Z,13.40
2022-09-10T01:59:43.976Z,13.40
2022-09-10T02:02:18.819Z,13.40
2022-09-10T02:04:48.517Z,13.40
2022-09-10T02:07:17.815Z,13.40
2022-09-10T02:09:44.661Z,13.40
2022-09-10T02:12:21.841Z,13.40
2022-09-10T02:14:54.332Z,13.30
2022-09-10T02:17:24.746Z,13.30
2022-09-10T02:19:52.614Z,13.30
2022-09-10T02:22:21.107Z,13.30
2022-09-10T02:24:48.036Z,13.20
2022-09-10T02:27:14.905Z,13.20
2022-09-10T02:29:41.818Z,13.20
2022-09-10T02:32:09.288Z,13.20
2022-09-10T02:34:36.748Z,13.20
2022-09-10T02:37:04.347Z,13.20
2022-09-10T02:39:34.140Z,13.20
2022-09-10T02:42:00.952Z,13.20
2022-09-10T02:44:28.218Z,13.20
2022-09-10T02:46:55.648Z,13.20
2022-09-10T02:49:22.503Z,13.10
2022-09-10T02:51:49.452Z,13.10
2022-09-10T02:54:16.806Z,13.10
2022-09-10T02:56:43.544Z,13.10
2022-09-10T02:59:10.289Z,13.10
2022-09-10T03:01:37.105Z,13.10
2022-09-10T03:04:03.995Z,13.20
2022-09-10T03:06:31.026Z,13.10
2022-09-10T03:08:57.853Z,13.10
2022-09-10T03:11:24.986Z,13.10
2022-09-10T03:13:51.748Z,13.10
2022-09-10T03:16:19.004Z,13.10
2022-09-10T03:18:46.639Z,13.10
2022-09-10T03:21:17.177Z,13.10
2022-09-10T03:23:45.949Z,13.10
2022-09-10T03:26:13.963Z,13.10
2022-09-10T03:28:42.327Z,13.10
2022-09-10T03:31:09.723Z,13.10
2022-09-10T03:33:37.110Z,13.10
2022-09-10T03:36:05.293Z,13.10
2022-09-10T03:38:32.135Z,13.10
2022-09-10T03:40:59.182Z,13.00
2022-09-10T03:43:25.928Z,13.00
2022-09-10T03:45:52.783Z,13.10
2022-09-10T03:48:21.041Z,13.10
2022-09-10T03:50:48.078Z,13.10
2022-09-10T03:53:15.869Z,13.20
2022-09-10T03:55:47.236Z,13.20
2022-09-10T03:58:15.087Z,13.20
2022-09-10T04:00:42.169Z,13.20
2022-09-10T04:03:09.342Z,13.20
2022-09-10T04:05:39.979Z,13.20
2022-09-10T04:08:07.218Z,13.20
2022-09-10T04:10:34.192Z,13.30
2022-09-10T04:13:01.112Z,13.30
2022-09-10T04:15:27.882Z,13.20
2022-09-10T04:17:54.729Z,13.20
2022-09-10T04:20:23.286Z,13.20
2022-09-10T04:22:51.350Z,13.20
2022-09-10T04:25:19.835Z,13.20
2022-09-10T04:27:47.183Z,13.20
2022-09-10T04:30:14.346Z,13.20
2022-09-10T04:32:41.274Z,13.20
2022-09-10T04:35:09.453Z,13.20
2022-09-10T04:37:36.294Z,13.20
2022-09-10T04:40:03.659Z,13.20
2022-09-10T04:42:30.496Z,13.20
2022-09-10T04:44:57.429Z,13.20
2022-09-10T04:47:24.202Z,13.20
2022-09-10T04:49:51.122Z,13.20
2022-09-10T04:52:17.866Z,13.20
2022-09-10T04:54:44.610Z,13.20
2022-09-10T04:57:12.048Z,13.20
2022-09-10T04:59:38.889Z,13.20
2022-09-10T05:02:05.667Z,13.20
2022-09-10T05:04:32.621Z,13.20
2022-09-10T05:06:59.620Z,13.20
2022-09-10T05:09:26.467Z,13.20
2022-09-10T05:11:53.316Z,13.20
2022-09-10T05:14:20.372Z,13.20
2022-09-10T05:16:47.222Z,13.30
2022-09-10T05:19:14.063Z,13.20
2022-09-10T05:21:40.868Z,13.20
2022-09-10T05:24:07.808Z,13.30
2022-09-10T05:26:34.658Z,13.30
2022-09-10T05:29:01.499Z,13.30
2022-09-10T05:31:28.502Z,13.30
2022-09-10T05:33:55.384Z,13.30
2022-09-10T05:36:22.431Z,13.30
2022-09-10T05:38:49.281Z,13.40
2022-09-10T05:41:16.056Z,13.40
2022-09-10T05:43:42.763Z,13.50
2022-09-10T05:46:09.532Z,13.50
2022-09-10T05:48:39.729Z,13.50
2022-09-10T05:51:08.323Z,13.50
2022-09-10T05:53:35.026Z,13.60
2022-09-10T05:56:01.875Z,13.50
2022-09-10T05:58:28.607Z,13.60
2022-09-10T06:00:55.487Z,13.60
2022-09-10T06:03:22.342Z,13.70
2022-09-10T06:05:53.046Z,13.70
2022-09-10T06:08:20.976Z,13.70
2022-09-10T06:11:14.072Z,13.70
2022-09-10T06:13:40.876Z,13.60
2022-09-10T06:16:07.919Z,13.60
2022-09-10T06:18:34.827Z,13.70
2022-09-10T06:21:12.376Z,13.60
2022-09-10T06:23:39.052Z,13.60
2022-09-10T06:26:08.216Z,13.70
2022-09-10T06:28:35.300Z,13.70
2022-09-10T06:31:02.410Z,13.70
2022-09-10T06:33:29.280Z,13.70
2022-09-10T06:36:00.818Z,13.70
2022-09-10T06:38:32.813Z,13.70
2022-09-10T06:41:01.776Z,13.70
2022-09-10T06:43:33.217Z,13.70
2022-09-10T06:46:00.420Z,13.70
2022-09-10T06:48:47.521Z,13.70
2022-09-10T06:51:14.021Z,13.70
2022-09-10T06:53:41.665Z,13.70
2022-09-10T06:56:11.214Z,13.70
2022-09-10T06:58:38.349Z,13.80
2022-09-10T07:01:13.631Z,13.80
2022-09-10T07:03:41.731Z,13.90
2022-09-10T07:06:11.239Z,13.90
2022-09-10T07:08:38.114Z,13.90
2022-09-10T07:11:07.988Z,14.00
2022-09-10T07:13:35.424Z,14.00
2022-09-10T07:16:02.518Z,14.10
2022-09-10T07:18:29.408Z,14.10
2022-09-10T07:21:15.812Z,14.20
2022-09-10T07:23:42.926Z,14.20
2022-09-10T07:26:12.388Z,14.20
2022-09-10T07:28:40.855Z,14.30
2022-09-10T07:31:34.335Z,14.20
2022-09-10T07:34:02.275Z,14.20
2022-09-10T07:36:29.552Z,14.20
2022-09-10T07:38:57.924Z,14.30
2022-09-10T07:41:24.995Z,14.40
2022-09-10T07:43:54.891Z,14.50
2022-09-10T07:46:22.874Z,14.50
2022-09-10T07:49:00.417Z,14.60
2022-09-10T07:51:29.159Z,14.70
2022-09-10T07:53:58.158Z,14.60
2022-09-10T07:56:25.699Z,14.70
2022-09-10T07:58:53.656Z,14.70
2022-09-10T08:01:20.682Z,14.80
2022-09-10T08:03:47.592Z,15.00
2022-09-10T08:06:14.824Z,15.10
2022-09-10T08:08:42.383Z,15.40
2022-09-10T08:11:15.167Z,15.50
2022-09-10T08:13:44.405Z,15.50
2022-09-10T08:16:14.138Z,15.50
2022-09-10T08:18:41.605Z,15.40
2022-09-10T08:21:08.698Z,15.40
2022-09-10T08:23:35.775Z,15.50
2022-09-10T08:26:02.742Z,15.50
2022-09-10T08:28:29.503Z,15.50
2022-09-10T08:31:00.348Z,15.50
2022-09-10T08:33:27.787Z,15.50
2022-09-10T08:35:59.434Z,15.50
2022-09-10T08:38:32.700Z,15.50
2022-09-10T08:41:00.894Z,15.50
2022-09-10T08:43:50.364Z,15.60
2022-09-10T08:46:40.348Z,15.60
2022-09-10T08:49:16.619Z,15.70
2022-09-10T08:52:11.302Z,15.80
2022-09-10T08:54:43.676Z,15.90
2022-09-10T08:57:47.999Z,15.90
2022-09-10T09:00:24.156Z,15.90
2022-09-10T09:02:57.874Z,15.90
2022-09-10T09:05:25.385Z,15.90
2022-09-10T09:07:52.946Z,16.00
2022-09-10T09:10:28.323Z,16.00
2022-09-10T09:13:34.338Z,16.10
2022-09-10T09:16:27.190Z,16.10
2022-09-10T09:19:20.039Z,16.10
2022-09-10T09:21:58.399Z,16.10
2022-09-10T09:24:36.729Z,16.00
2022-09-10T09:27:07.087Z,16.10
2022-09-10T09:29:46.097Z,16.20
2022-09-10T09:32:17.335Z,16.20
2022-09-10T09:34:52.552Z,16.20
2022-09-10T09:37:23.000Z,16.30
2022-09-10T09:40:16.709Z,16.20
2022-09-10T09:42:58.742Z,16.10
2022-09-10T09:45:36.071Z,16.20
2022-09-10T09:48:05.528Z,16.10
2022-09-10T09:50:33.708Z,16.10
2022-09-10T09:53:00.810Z,16.10
2022-09-10T09:55:30.686Z,16.20
2022-09-10T09:58:22.134Z,16.20
2022-09-10T10:01:05.439Z,16.20
2022-09-10T10:03:45.768Z,16.30
2022-09-10T10:06:12.878Z,16.40
2022-09-10T10:08:43.440Z,16.40
2022-09-10T10:11:16.897Z,16.40
2022-09-10T10:13:45.646Z,16.30
2022-09-10T10:16:18.401Z,16.00
2022-09-10T10:18:45.752Z,15.80
2022-09-10T10:21:21.356Z,15.70
2022-09-10T10:23:49.176Z,15.70
2022-09-10T10:26:21.878Z,15.80
2022-09-10T10:29:06.904Z,15.90
2022-09-10T10:31:41.023Z,16.10
2022-09-10T10:34:21.452Z,16.20
2022-09-10T10:37:16.040Z,16.20
2022-09-10T10:40:02.941Z,16.40
2022-09-10T10:42:33.896Z,16.80
2022-09-10T10:45:28.685Z,16.80
2022-09-10T10:48:20.098Z,16.70
2022-09-10T10:51:14.537Z,16.60
2022-09-10T10:53:41.377Z,16.50
2022-09-10T10:56:41.490Z,16.30
2022-09-10T10:59:35.802Z,16.20
2022-09-10T11:02:15.920Z,15.80
2022-09-10T11:04:54.543Z,15.60
2022-09-10T11:07:29.897Z,15.40
2022-09-10T11:10:06.060Z,15.30
2022-09-10T11:12:45.105Z,15.30
2022-09-10T11:15:25.673Z,15.20
2022-09-10T11:17:55.858Z,15.20
2022-09-10T11:20:37.559Z,15.40
2022-09-10T11:23:16.341Z,15.80
2022-09-10T11:26:11.377Z,16.40
2022-09-10T11:29:02.383Z,16.60
2022-09-10T11:31:50.070Z,16.80
2022-09-10T11:34:21.109Z,17.20
2022-09-10T11:36:58.241Z,17.50
2022-09-10T11:39:35.772Z,17.80
2022-09-10T11:42:30.139Z,18.10
2022-09-10T11:44:59.517Z,18.40
2022-09-10T11:47:50.241Z,18.60
2022-09-10T11:50:34.574Z,18.80
2022-09-10T11:53:02.677Z,18.90
2022-09-10T11:55:53.247Z,19.00
2022-09-10T11:58:48.344Z,19.10
2022-09-10T12:01:19.036Z,18.70
2022-09-10T12:03:55.785Z,18.60
2022-09-10T12:06:44.932Z,18.40
2022-09-10T12:09:49.702Z,18.50
2022-09-10T12:12:22.178Z,18.60
2022-09-10T12:14:49.128Z,18.80
2022-09-10T12:17:29.679Z,18.80
2022-09-10T12:19:59.039Z,18.40
2022-09-10T12:22:30.954Z,18.50
2022-09-10T12:25:04.176Z,18.60
2022-09-10T12:27:50.921Z,18.80
2022-09-10T12:30:26.709Z,19.10
2022-09-10T12:32:54.413Z,19.30
2022-09-10T12:35:30.415Z,19.50
2022-09-10T12:38:34.581Z,19.90
2022-09-10T12:41:02.647Z,19.90
2022-09-10T12:43:41.798Z,19.90
2022-09-10T12:46:11.579Z,20.00
2022-09-10T12:49:07.056Z,20.00
2022-09-10T12:51:51.615Z,20.20
2022-09-10T12:54:46.382Z,20.30
2022-09-10T12:57:41.996Z,20.30
2022-09-10T13:00:21.663Z,20.10
2022-09-10T13:02:54.721Z,19.90
2022-09-10T13:05:24.724Z,19.40
2022-09-10T13:08:20.171Z,19.40
2022-09-10T13:11:07.467Z,19.20
2022-09-10T13:13:48.364Z,19.20
2022-09-10T13:16:21.455Z,19.30
2022-09-10T13:18:48.932Z,19.50
2022-09-10T13:21:24.968Z,19.50
2022-09-10T13:23:55.832Z,19.40
2022-09-10T13:26:47.114Z,19.20
2022-09-10T13:29:30.144Z,19.10
2022-09-10T13:32:07.481Z,18.90
2022-09-10T13:34:58.651Z,18.80
2022-09-10T13:37:35.070Z,18.90
2022-09-10T13:40:32.948Z,18.80
2022-09-10T13:43:33.111Z,18.80
2022-09-10T13:46:11.940Z,18.80
2022-09-10T13:49:06.457Z,18.80
2022-09-10T13:51:46.412Z,18.80
2022-09-10T13:54:33.471Z,18.90
2022-09-10T13:57:09.025Z,18.90
2022-09-10T13:59:37.042Z,18.80
2022-09-10T14:02:03.858Z,18.90
2022-09-10T14:04:35.276Z,18.80
2022-09-10T14:07:13.035Z,18.90
2022-09-10T14:09:44.978Z,18.70
2022-09-10T14:12:12.298Z,18.50
2022-09-10T14:14:42.736Z,18.40
2022-09-10T14:17:16.493Z,18.40
2022-09-10T14:19:45.937Z,18.30
2022-09-10T14:22:16.980Z,18.40
2022-09-10T14:24:43.733Z,18.40
2022-09-10T14:27:18.592Z,18.40
2022-09-10T14:29:45.914Z,18.60
2022-09-10T14:32:17.435Z,18.70
2022-09-10T14:34:44.448Z,18.70
2022-09-10T14:37:26.178Z,18.80
2022-09-10T14:39:53.010Z,18.60
2022-09-10T14:42:31.892Z,18.50
2022-09-10T14:44:58.788Z,18.40
2022-09-10T14:47:34.851Z,18.30
2022-09-10T14:50:26.992Z,18.30
2022-09-10T14:52:55.202Z,18.30
2022-09-10T14:55:22.467Z,18.20
2022-09-10T14:57:49.711Z,18.20
2022-09-10T15:00:16.696Z,18.10
2022-09-10T15:02:43.506Z,17.90
2022-09-10T15:05:15.126Z,17.80
2022-09-10T15:07:41.903Z,17.80
2022-09-10T15:10:09.688Z,17.50
2022-09-10T15:12:38.639Z,17.40
2022-09-10T15:15:05.730Z,17.40
2022-09-10T15:17:34.754Z,17.30
2022-09-10T15:20:01.639Z,17.20
2022-09-10T15:22:30.304Z,17.20
2022-09-10T15:25:13.056Z,17.10
2022-09-10T15:27:39.867Z,17.00
2022-09-10T15:30:07.264Z,16.90
2022-09-10T15:32:34.062Z,16.90
2022-09-10T15:35:00.843Z,16.90
2022-09-10T15:37:27.550Z,16.90
2022-09-10T15:39:54.470Z,16.90
2022-09-10T15:42:21.316Z,16.90
2022-09-10T15:44:48.027Z,17.00
2022-09-10T15:47:14.810Z,17.00
2022-09-10T15:49:41.597Z,17.00
2022-09-10T15:52:08.399Z,17.00
2022-09-10T15:54:35.221Z,17.00
2022-09-10T15:57:01.905Z,17.00
2022-09-10T15:59:28.643Z,17.00
2022-09-10T16:01:55.587Z,17.00
2022-09-10T16:04:22.501Z,17.10
2022-09-10T16:06:49.171Z,17.20
2022-09-10T16:09:15.959Z,17.20
2022-09-10T16:11:43.232Z,17.20
2022-09-10T16:14:13.911Z,17.10
2022-09-10T16:16:40.838Z,17.10
2022-09-10T16:19:08.449Z,17.00
2022-09-10T16:21:37.248Z,16.90
2022-09-10T16:24:05.827Z,16.90
2022-09-10T16:26:39.221Z,16.80
2022-09-10T16:29:16.921Z,16.70
2022-09-10T16:31:44.056Z,16.70
2022-09-10T16:34:12.896Z,16.70
2022-09-10T16:36:39.933Z,16.70
2022-09-10T16:39:09.023Z,16.70
2022-09-10T16:41:35.767Z,16.70
2022-09-10T16:44:02.823Z,16.70
2022-09-10T16:46:29.708Z,16.70
2022-09-10T16:48:57.398Z,16.70
2022-09-10T16:51:25.937Z,16.70
2022-09-10T16:54:00.691Z,16.70
2022-09-10T16:56:28.098Z,16.70
2022-09-10T16:58:55.193Z,16.70
2022-09-10T17:01:22.345Z,16.70
2022-09-10T17:03:49.941Z,16.70
2022-09-10T17:06:24.909Z,16.70
2022-09-10T17:08:55.870Z,16.60
2022-09-10T17:11:22.628Z,16.60
2022-09-10T17:13:49.459Z,16.60
2022-09-10T17:16:27.486Z,16.50
2022-09-10T17:18:59.828Z,16.50
2022-09-10T17:21:28.256Z,16.50
2022-09-10T17:23:56.130Z,16.40
2022-09-10T17:26:23.393Z,16.40
2022-09-10T17:29:12.940Z,16.40
2022-09-10T17:31:39.751Z,16.30
2022-09-10T17:34:06.694Z,16.20
2022-09-10T17:36:34.353Z,16.20
2022-09-10T17:39:01.331Z,16.20
2022-09-10T17:41:29.515Z,16.20
2022-09-10T17:43:58.381Z,16.20
2022-09-10T17:46:25.762Z,16.20
2022-09-10T17:48:53.787Z,16.10
2022-09-10T17:51:26.493Z,16.10
2022-09-10T17:56:41.792Z,16.10
2022-09-10T17:59:18.984Z,16.10
2022-09-10T18:01:45.863Z,16.10
2022-09-10T18:04:12.859Z,16.10
2022-09-10T18:09:21.809Z,16.00
2022-09-10T18:11:52.743Z,15.90
2022-09-10T18:14:25.409Z,15.90
2022-09-10T18:16:57.645Z,15.90
2022-09-10T18:19:37.972Z,15.80
2022-09-10T18:22:05.198Z,15.70
2022-09-10T18:24:48.386Z,15.70
2022-09-10T18:27:18.524Z,15.60
2022-09-10T18:29:56.633Z,15.60
2022-09-10T18:32:33.172Z,15.60
2022-09-10T18:38:02.844Z,15.60
2022-09-10T18:43:10.535Z,15.50
2022-09-10T18:45:37.297Z,15.40
2022-09-10T18:48:04.670Z,15.40
2022-09-10T18:50:35.051Z,15.40
2022-09-10T18:53:01.976Z,15.40
2022-09-10T18:55:28.853Z,15.40
2022-09-10T18:57:55.666Z,15.30
2022-09-10T19:00:23.237Z,15.20
2022-09-10T19:02:50.207Z,15.20
2022-09-10T19:05:17.643Z,15.20
2022-09-10T19:07:44.565Z,15.20
2022-09-10T19:10:11.532Z,15.10
2022-09-10T19:12:40.431Z,15.10
2022-09-10T19:15:07.976Z,15.10
2022-09-10T19:17:35.239Z,15.10
2022-09-10T19:20:02.293Z,15.10
2022-09-10T19:22:29.130Z,15.00
2022-09-10T19:24:56.442Z,15.00
2022-09-10T19:27:24.234Z,15.00
2022-09-10T19:29:51.688Z,15.00
2022-09-10T19:32:19.141Z,15.00
2022-09-10T19:34:46.472Z,14.90
2022-09-10T19:37:13.641Z,15.00
2022-09-10T19:39:40.507Z,15.00
2022-09-10T19:42:07.305Z,14.90
2022-09-10T19:44:34.146Z,14.90
2022-09-10T19:49:41.888Z,14.90
2022-09-10T19:52:11.015Z,14.90
2022-09-10T19:54:38.126Z,14.90
2022-09-10T19:57:05.495Z,14.90
2022-09-10T19:59:35.409Z,14.90
2022-09-10T20:02:02.368Z,14.90
2022-09-10T20:04:30.008Z,14.80
2022-09-10T20:07:01.478Z,14.80
2022-09-10T20:09:48.581Z,14.80
2022-09-10T20:12:18.283Z,14.70
2022-09-10T20:15:02.737Z,14.80
2022-09-10T20:17:36.762Z,14.80
2022-09-10T20:20:06.194Z,14.80
2022-09-10T20:22:46.096Z,14.70
2022-09-10T20:25:15.217Z,14.70
2022-09-10T20:30:34.520Z,14.70
2022-09-10T20:35:48.071Z,14.70
2022-09-10T20:38:20.909Z,14.70
2022-09-10T20:43:40.299Z,14.60
2022-09-10T20:46:28.912Z,14.60
2022-09-10T20:51:49.648Z,14.60
2022-09-10T20:54:31.541Z,14.60
2022-09-10T20:56:59.751Z,14.60
2022-09-10T20:59:37.227Z,14.60
2022-09-10T21:02:07.774Z,14.60
2022-09-10T21:07:26.631Z,14.50
2022-09-10T21:12:37.520Z,14.60
2022-09-10T21:15:16.319Z,14.60
2022-09-10T21:25:54.578Z,14.60
2022-09-10T21:28:21.520Z,14.60
2022-09-10T21:30:48.529Z,14.60
2022-09-10T21:33:15.445Z,14.50
2022-09-10T21:35:44.820Z,14.50
2022-09-10T21:38:16.501Z,14.40
2022-09-10T21:48:55.974Z,14.50
2022-09-10T21:51:23.219Z,14.40
2022-09-10T21:53:53.847Z,14.40
2022-09-10T21:56:21.299Z,14.40
2022-09-10T21:58:48.640Z,14.40
2022-09-10T22:01:22.092Z,14.40
2022-09-10T22:03:59.022Z,14.40
2022-09-10T22:06:38.888Z,14.40
2022-09-10T22:09:31.240Z,14.40
2022-09-10T22:14:59.233Z,14.40
2022-09-10T22:23:20.358Z,14.30
2022-09-10T22:25:58.394Z,14.30
2022-09-10T22:28:44.324Z,14.30
2022-09-10T22:31:21.465Z,14.30
2022-09-10T22:42:08.740Z,14.30
2022-09-10T22:47:18.544Z,14.30
2022-09-10T22:52:29.635Z,14.30
2022-09-10T22:57:39.931Z,14.30
2022-09-10T23:00:37.902Z,14.30
2022-09-10T23:05:56.801Z,14.30
2022-09-10T23:11:41.182Z,14.30
2022-09-10T23:16:59.602Z,14.30
2022-09-10T23:19:34.577Z,14.30
2022-09-10T23:22:01.369Z,14.20
2022-09-10T23:24:51.775Z,14.20
2022-09-10T23:36:02.195Z,14.10
2022-09-10T23:38:53.911Z,14.10
2022-09-10T23:44:39.308Z,14.10
2022-09-10T23:47:22.442Z,14.10
2022-09-10T23:49:53.372Z,14.10
2022-09-10T23:55:29.130Z,14.20
